createdAt,value
2017-06-28T00:00:06.157Z,0
2017-06-28T00:00:31.720Z,0
2017-06-28T00:00:57.332Z,0
2017-06-28T00:01:22.899Z,0
2017-06-28T00:01:48.470Z,0
2017-06-28T00:02:14.051Z,0
2017-06-28T00:02:39.651Z,0
2017-06-28T00:03:05.208Z,0
2017-06-28T00:03:30.773Z,0
2017-06-28T00:03:56.399Z,0
2017-06-28T00:04:21.961Z,0
2017-06-28T00:04:47.505Z,0
2017-06-28T00:05:13.133Z,0
2017-06-28T00:06:37.611Z,0
2017-06-28T00:07:03.253Z,0
2017-06-28T00:07:28.823Z,0
2017-06-28T00:07:54.410Z,0
2017-06-28T00:08:20.006Z,0
2017-06-28T00:08:45.604Z,0
2017-06-28T00:09:11.139Z,0
2017-06-28T00:09:36.700Z,0
2017-06-28T00:10:02.252Z,0
2017-06-28T00:10:27.838Z,0
2017-06-28T00:10:53.449Z,0
2017-06-28T00:11:19.031Z,0
2017-06-28T00:11:44.601Z,0
2017-06-28T00:12:10.230Z,0
2017-06-28T00:12:35.831Z,0
2017-06-28T00:13:01.417Z,0
2017-06-28T00:13:26.972Z,0
2017-06-28T00:13:52.552Z,0
2017-06-28T00:14:18.162Z,0
2017-06-28T00:14:43.707Z,0
2017-06-28T00:15:09.259Z,0
2017-06-28T00:15:34.835Z,0
2017-06-28T00:16:00.413Z,0
2017-06-28T00:16:26.006Z,0
2017-06-28T00:16:51.547Z,0
2017-06-28T00:17:17.130Z,0
2017-06-28T00:17:42.680Z,0
2017-06-28T00:18:08.224Z,0
2017-06-28T00:18:33.833Z,0
2017-06-28T00:18:59.517Z,0
2017-06-28T00:19:25.095Z,0
2017-06-28T00:19:50.641Z,0
2017-06-28T00:20:16.206Z,0
2017-06-28T00:20:41.831Z,0
2017-06-28T00:21:07.407Z,0
2017-06-28T00:21:33.005Z,0
2017-06-28T00:21:58.580Z,0
2017-06-28T00:22:24.129Z,0
2017-06-28T00:22:49.675Z,0
2017-06-28T00:23:15.221Z,0
2017-06-28T00:23:40.814Z,0
2017-06-28T00:24:06.406Z,0
2017-06-28T00:24:31.969Z,0
2017-06-28T00:24:57.538Z,0
2017-06-28T00:25:23.178Z,0
2017-06-28T00:25:48.722Z,0
2017-06-28T00:26:14.280Z,0
2017-06-28T00:26:39.888Z,0
2017-06-28T00:27:05.442Z,0
2017-06-28T00:27:31.045Z,0
2017-06-28T00:27:56.600Z,0
2017-06-28T00:28:22.154Z,0
2017-06-28T00:28:47.706Z,0
2017-06-28T00:29:13.318Z,0
2017-06-28T00:29:38.803Z,0
2017-06-28T00:30:04.359Z,0
2017-06-28T00:30:29.916Z,0
2017-06-28T00:30:55.508Z,0
2017-06-28T00:31:21.090Z,0
2017-06-28T00:31:46.782Z,0
2017-06-28T00:32:12.428Z,0
2017-06-28T00:32:37.983Z,0
2017-06-28T00:33:03.545Z,0
2017-06-28T00:33:29.090Z,0
2017-06-28T00:33:54.637Z,0
2017-06-28T00:34:20.238Z,0
2017-06-28T00:34:45.878Z,0
2017-06-28T00:35:11.446Z,0
2017-06-28T00:35:37.014Z,0
2017-06-28T00:36:02.585Z,0
2017-06-28T00:36:28.146Z,0
2017-06-28T00:36:53.717Z,0
2017-06-28T00:37:19.287Z,0
2017-06-28T00:37:44.881Z,0
2017-06-28T00:38:10.434Z,0
2017-06-28T00:38:36.001Z,0
2017-06-28T00:39:01.558Z,0
2017-06-28T00:39:27.151Z,0
2017-06-28T00:39:52.700Z,0
2017-06-28T00:40:18.256Z,0
2017-06-28T00:40:43.849Z,0
2017-06-28T00:41:09.535Z,0
2017-06-28T00:41:35.116Z,0
2017-06-28T00:42:00.677Z,0
2017-06-28T00:42:26.238Z,0
2017-06-28T00:42:51.808Z,0
2017-06-28T00:43:17.358Z,0
2017-06-28T00:43:42.962Z,0
2017-06-28T00:44:08.517Z,0
2017-06-28T00:44:34.100Z,0
2017-06-28T00:44:59.671Z,0
2017-06-28T00:45:25.271Z,0
2017-06-28T00:45:50.814Z,0
2017-06-28T00:46:16.374Z,0
2017-06-28T00:46:41.928Z,0
2017-06-28T00:47:07.484Z,0
2017-06-28T00:47:33.061Z,0
2017-06-28T00:47:58.635Z,0
2017-06-28T00:48:24.226Z,0
2017-06-28T00:48:49.791Z,0
2017-06-28T00:49:15.390Z,0
2017-06-28T00:49:40.952Z,0
2017-06-28T00:50:06.610Z,0
2017-06-28T00:50:32.190Z,0
2017-06-28T00:50:57.740Z,0
2017-06-28T00:51:23.321Z,0
2017-06-28T00:51:48.871Z,0
2017-06-28T00:52:14.419Z,0
2017-06-28T00:52:39.978Z,0
2017-06-28T00:53:05.550Z,0
2017-06-28T00:53:31.163Z,0
2017-06-28T00:53:56.737Z,0
2017-06-28T00:54:22.308Z,0
2017-06-28T00:54:47.892Z,0
2017-06-28T00:55:13.475Z,0
2017-06-28T00:55:39.035Z,0
2017-06-28T00:56:04.579Z,0
2017-06-28T00:56:30.147Z,0
2017-06-28T00:56:55.706Z,0
2017-06-28T00:57:21.263Z,0
2017-06-28T00:57:46.912Z,0
2017-06-28T00:58:12.467Z,0
2017-06-28T00:58:38.021Z,0
2017-06-28T00:59:03.613Z,0
2017-06-28T00:59:29.384Z,0
2017-06-28T00:59:54.948Z,0
2017-06-28T01:00:20.505Z,0
2017-06-28T01:00:46.065Z,0
2017-06-28T01:01:11.635Z,0
2017-06-28T01:01:37.219Z,0
2017-06-28T01:02:02.789Z,0
2017-06-28T01:02:28.350Z,0
2017-06-28T01:02:53.936Z,0
2017-06-28T01:03:19.494Z,0
2017-06-28T01:03:45.048Z,0
2017-06-28T01:04:10.616Z,0
2017-06-28T01:04:36.181Z,0
2017-06-28T01:05:01.739Z,0
2017-06-28T01:05:27.302Z,0
2017-06-28T01:05:52.870Z,0
2017-06-28T01:06:18.430Z,0
2017-06-28T01:06:43.988Z,0
2017-06-28T01:07:09.528Z,0
2017-06-28T01:07:35.127Z,0
2017-06-28T01:08:00.692Z,0
2017-06-28T01:08:26.341Z,0
2017-06-28T01:08:52.011Z,0
2017-06-28T01:09:17.591Z,0
2017-06-28T01:09:43.176Z,0
2017-06-28T01:10:08.747Z,0
2017-06-28T01:10:34.309Z,0
2017-06-28T01:10:59.901Z,0
2017-06-28T01:11:25.468Z,0
2017-06-28T01:11:51.035Z,0
2017-06-28T01:12:16.608Z,0
2017-06-28T01:12:42.201Z,0
2017-06-28T01:13:07.723Z,0
2017-06-28T01:13:33.320Z,0
2017-06-28T01:13:58.883Z,0
2017-06-28T01:14:24.458Z,0
2017-06-28T01:14:50.031Z,0
2017-06-28T01:15:15.588Z,0
2017-06-28T01:15:41.194Z,0
2017-06-28T01:16:06.761Z,0
2017-06-28T01:16:32.499Z,0
2017-06-28T01:16:58.045Z,0
2017-06-28T01:17:23.688Z,0
2017-06-28T01:17:49.242Z,0
2017-06-28T01:18:14.806Z,0
2017-06-28T01:18:40.353Z,0
2017-06-28T01:19:05.943Z,0
2017-06-28T01:19:31.501Z,0
2017-06-28T01:19:57.081Z,0
2017-06-28T01:20:22.656Z,0
2017-06-28T01:20:48.247Z,0
2017-06-28T01:21:13.812Z,0
2017-06-28T01:21:39.393Z,0
2017-06-28T01:22:04.941Z,0
2017-06-28T01:22:30.510Z,0
2017-06-28T01:22:56.087Z,0
2017-06-28T01:23:21.709Z,0
2017-06-28T01:23:47.317Z,0
2017-06-28T01:24:12.891Z,0
2017-06-28T01:24:38.485Z,0
2017-06-28T01:25:04.037Z,0
2017-06-28T01:25:29.608Z,0
2017-06-28T01:25:55.173Z,0
2017-06-28T01:26:20.758Z,0
2017-06-28T01:26:46.318Z,0
2017-06-28T01:27:11.881Z,0
2017-06-28T01:27:37.456Z,0
2017-06-28T01:28:03.009Z,0
2017-06-28T01:28:28.643Z,0
2017-06-28T01:28:54.202Z,0
2017-06-28T01:29:19.776Z,0
2017-06-28T01:29:45.354Z,0
2017-06-28T01:30:10.912Z,0
2017-06-28T01:30:36.492Z,0
2017-06-28T01:31:02.082Z,0
2017-06-28T01:31:27.652Z,0
2017-06-28T01:31:53.239Z,0
2017-06-28T01:32:18.854Z,0
2017-06-28T01:32:44.404Z,0
2017-06-28T01:33:09.975Z,0
2017-06-28T01:33:35.667Z,0
2017-06-28T01:34:01.292Z,0
2017-06-28T01:34:26.871Z,0
2017-06-28T01:34:52.455Z,0
2017-06-28T01:35:18.051Z,0
2017-06-28T01:35:43.600Z,0
2017-06-28T01:36:09.209Z,0
2017-06-28T01:36:34.784Z,0
2017-06-28T01:37:00.349Z,0
2017-06-28T01:37:25.921Z,0
2017-06-28T01:37:51.583Z,0
2017-06-28T01:38:17.147Z,0
2017-06-28T01:38:42.712Z,0
2017-06-28T01:39:08.362Z,0
2017-06-28T01:39:33.957Z,0
2017-06-28T01:39:59.518Z,0
2017-06-28T01:40:25.097Z,0
2017-06-28T01:40:50.758Z,0
2017-06-28T01:41:16.330Z,0
2017-06-28T01:41:41.900Z,0
2017-06-28T01:42:07.475Z,0
2017-06-28T01:42:33.070Z,0
2017-06-28T01:42:58.690Z,0
2017-06-28T01:43:24.245Z,0
2017-06-28T01:44:28.234Z,0
2017-06-28T01:44:53.850Z,0
2017-06-28T01:45:19.551Z,0
2017-06-28T01:45:45.100Z,0
2017-06-28T01:46:10.749Z,0
2017-06-28T01:46:36.335Z,0
2017-06-28T01:47:01.956Z,0
2017-06-28T01:47:27.543Z,0
2017-06-28T01:47:53.101Z,0
2017-06-28T01:48:18.656Z,0
2017-06-28T01:48:44.223Z,0
2017-06-28T01:49:09.776Z,0
2017-06-28T01:49:35.339Z,0
2017-06-28T01:50:00.907Z,0
2017-06-28T01:50:26.508Z,0
2017-06-28T01:50:52.080Z,0
2017-06-28T01:51:17.668Z,0
2017-06-28T01:51:43.244Z,0
2017-06-28T01:52:08.829Z,0
2017-06-28T01:52:34.380Z,0
2017-06-28T01:52:59.940Z,0
2017-06-28T01:53:25.512Z,0
2017-06-28T01:53:51.075Z,0
2017-06-28T01:54:16.645Z,0
2017-06-28T01:54:42.268Z,0
2017-06-28T01:55:07.822Z,0
2017-06-28T01:55:33.451Z,0
2017-06-28T01:55:59.059Z,0
2017-06-28T01:56:24.657Z,0
2017-06-28T01:56:50.222Z,0
2017-06-28T01:57:15.779Z,0
2017-06-28T01:57:41.319Z,0
2017-06-28T01:58:06.880Z,0
2017-06-28T01:58:32.522Z,0
2017-06-28T01:58:58.101Z,0
2017-06-28T01:59:23.653Z,0
2017-06-28T01:59:49.235Z,0
2017-06-28T02:00:14.791Z,0
2017-06-28T02:00:40.382Z,0
2017-06-28T02:01:05.937Z,0
2017-06-28T02:01:31.497Z,0
2017-06-28T02:01:57.051Z,0
2017-06-28T02:02:22.617Z,0
2017-06-28T02:02:48.185Z,0
2017-06-28T02:03:13.750Z,0
2017-06-28T02:03:39.429Z,0
2017-06-28T02:04:04.976Z,0
2017-06-28T02:04:30.553Z,0
2017-06-28T02:04:56.102Z,0
2017-06-28T02:05:21.686Z,0
2017-06-28T02:05:47.251Z,0
2017-06-28T02:06:12.880Z,0
2017-06-28T02:06:38.530Z,0
2017-06-28T02:07:04.088Z,0
2017-06-28T02:07:29.659Z,0
2017-06-28T02:07:55.203Z,0
2017-06-28T02:08:20.781Z,0
2017-06-28T02:08:46.333Z,0
2017-06-28T02:09:12.015Z,0
2017-06-28T02:09:37.586Z,0
2017-06-28T02:10:03.137Z,0
2017-06-28T02:10:28.699Z,0
2017-06-28T02:10:54.250Z,0
2017-06-28T02:11:19.805Z,0
2017-06-28T02:11:45.358Z,0
2017-06-28T02:12:10.912Z,0
2017-06-28T02:12:36.518Z,0
2017-06-28T02:13:02.085Z,0
2017-06-28T02:13:27.673Z,0
2017-06-28T02:13:53.272Z,0
2017-06-28T02:14:18.908Z,0
2017-06-28T02:14:44.483Z,0
2017-06-28T02:15:10.069Z,0
2017-06-28T02:15:35.627Z,0
2017-06-28T02:16:01.197Z,0
2017-06-28T02:16:26.772Z,0
2017-06-28T02:16:52.317Z,0
2017-06-28T02:17:17.876Z,0
2017-06-28T02:17:43.471Z,0
2017-06-28T02:18:09.076Z,0
2017-06-28T02:18:34.633Z,0
2017-06-28T02:19:00.193Z,0
2017-06-28T02:19:25.763Z,0
2017-06-28T02:19:51.318Z,0
2017-06-28T02:20:16.895Z,0
2017-06-28T02:20:42.534Z,0
2017-06-28T02:21:08.094Z,0
2017-06-28T02:21:33.671Z,0
2017-06-28T02:21:59.281Z,0
2017-06-28T02:22:24.880Z,0
2017-06-28T02:22:50.434Z,0
2017-06-28T02:23:16.025Z,0
2017-06-28T02:23:41.587Z,0
2017-06-28T02:24:07.164Z,0
2017-06-28T02:24:32.744Z,0
2017-06-28T02:24:58.312Z,0
2017-06-28T02:25:23.854Z,0
2017-06-28T02:25:49.437Z,0
2017-06-28T02:26:14.994Z,0
2017-06-28T02:26:40.570Z,0
2017-06-28T02:27:06.112Z,0
2017-06-28T02:27:31.732Z,0
2017-06-28T02:27:57.290Z,0
2017-06-28T02:28:22.888Z,0
2017-06-28T02:28:48.504Z,0
2017-06-28T02:29:14.068Z,0
2017-06-28T02:29:39.623Z,0
2017-06-28T02:30:05.180Z,0
2017-06-28T02:30:30.739Z,0
2017-06-28T02:30:56.382Z,0
2017-06-28T02:31:22.071Z,0
2017-06-28T02:31:47.637Z,0
2017-06-28T02:32:13.191Z,0
2017-06-28T02:32:38.741Z,0
2017-06-28T02:33:04.283Z,0
2017-06-28T02:33:29.861Z,0
2017-06-28T02:33:55.407Z,0
2017-06-28T02:34:20.975Z,0
2017-06-28T02:34:46.535Z,0
2017-06-28T02:35:12.182Z,0
2017-06-28T02:35:37.749Z,0
2017-06-28T02:36:03.283Z,0
2017-06-28T02:36:28.852Z,0
2017-06-28T02:36:54.403Z,0
2017-06-28T02:37:19.960Z,0
2017-06-28T02:37:45.529Z,0
2017-06-28T02:38:11.085Z,0
2017-06-28T02:38:36.660Z,0
2017-06-28T02:39:02.213Z,0
2017-06-28T02:39:27.773Z,0
2017-06-28T02:39:53.395Z,0
2017-06-28T02:40:18.956Z,0
2017-06-28T02:40:44.523Z,0
2017-06-28T02:41:10.078Z,0
2017-06-28T02:41:35.629Z,0
2017-06-28T02:42:01.176Z,0
2017-06-28T02:42:26.812Z,0
2017-06-28T02:42:52.355Z,0
2017-06-28T02:43:17.908Z,0
2017-06-28T02:43:43.463Z,0
2017-06-28T02:44:09.028Z,0
2017-06-28T02:44:34.580Z,0
2017-06-28T02:45:00.150Z,0
2017-06-28T02:45:25.697Z,0
2017-06-28T02:45:51.277Z,0
2017-06-28T02:46:16.881Z,0
2017-06-28T02:46:42.447Z,0
2017-06-28T02:47:08.018Z,0
2017-06-28T02:47:33.580Z,0
2017-06-28T02:47:59.135Z,0
2017-06-28T02:48:24.703Z,0
2017-06-28T02:48:50.272Z,0
2017-06-28T02:49:15.838Z,0
2017-06-28T02:49:41.400Z,0
2017-06-28T02:50:06.954Z,0
2017-06-28T02:50:32.512Z,0
2017-06-28T02:50:58.088Z,0
2017-06-28T02:51:23.643Z,0
2017-06-28T02:51:49.173Z,0
2017-06-28T02:52:14.804Z,0
2017-06-28T02:52:40.481Z,0
2017-06-28T02:53:06.053Z,0
2017-06-28T02:53:31.605Z,0
2017-06-28T02:53:57.172Z,0
2017-06-28T02:54:22.739Z,0
2017-06-28T02:54:48.307Z,0
2017-06-28T02:55:13.871Z,0
2017-06-28T02:55:39.481Z,0
2017-06-28T02:56:05.046Z,0
2017-06-28T02:56:30.704Z,0
2017-06-28T02:56:56.255Z,0
2017-06-28T02:57:21.832Z,0
2017-06-28T02:57:47.421Z,0
2017-06-28T02:58:12.986Z,0
2017-06-28T02:58:38.537Z,0
2017-06-28T02:59:04.122Z,0
2017-06-28T02:59:29.778Z,0
2017-06-28T02:59:55.347Z,0
2017-06-28T03:00:20.939Z,0
2017-06-28T03:00:46.508Z,0
2017-06-28T03:01:12.081Z,0
2017-06-28T03:01:37.620Z,0
2017-06-28T03:02:03.229Z,0
2017-06-28T03:02:28.867Z,0
2017-06-28T03:02:54.407Z,0
2017-06-28T03:03:19.992Z,0
2017-06-28T03:03:45.544Z,0
2017-06-28T03:04:11.089Z,0
2017-06-28T03:04:36.712Z,0
2017-06-28T03:05:02.278Z,0
2017-06-28T03:05:27.851Z,0
2017-06-28T03:05:53.444Z,0
2017-06-28T03:06:18.988Z,0
2017-06-28T03:06:44.543Z,0
2017-06-28T03:07:10.131Z,0
2017-06-28T03:07:35.689Z,0
2017-06-28T03:08:01.235Z,0
2017-06-28T03:08:26.784Z,0
2017-06-28T03:08:52.467Z,0
2017-06-28T03:09:18.073Z,0
2017-06-28T03:09:43.672Z,0
2017-06-28T03:10:09.219Z,0
2017-06-28T03:10:34.767Z,0
2017-06-28T03:11:00.351Z,0
2017-06-28T03:11:25.903Z,0
2017-06-28T03:11:51.458Z,0
2017-06-28T03:12:17.023Z,0
2017-06-28T03:12:42.740Z,0
2017-06-28T03:13:08.308Z,0
2017-06-28T03:13:33.864Z,0
2017-06-28T03:13:59.427Z,0
2017-06-28T03:14:25.013Z,0
2017-06-28T03:14:50.577Z,0
2017-06-28T03:15:16.141Z,0
2017-06-28T03:15:41.700Z,0
2017-06-28T03:16:07.275Z,0
2017-06-28T03:16:32.821Z,0
2017-06-28T03:16:58.373Z,0
2017-06-28T03:17:23.958Z,0
2017-06-28T03:17:49.511Z,0
2017-06-28T03:18:15.067Z,0
2017-06-28T03:18:40.675Z,0
2017-06-28T03:19:06.239Z,0
2017-06-28T03:19:31.830Z,0
2017-06-28T03:19:57.390Z,0
2017-06-28T03:20:22.947Z,0
2017-06-28T03:20:48.528Z,0
2017-06-28T03:21:14.121Z,0
2017-06-28T03:21:39.758Z,0
2017-06-28T03:22:05.327Z,0
2017-06-28T03:22:30.881Z,4
2017-06-28T03:22:56.440Z,4
2017-06-28T03:23:22.011Z,4
2017-06-28T03:23:47.573Z,4
2017-06-28T03:24:13.156Z,4
2017-06-28T03:24:38.722Z,4
2017-06-28T03:25:04.295Z,4
2017-06-28T03:25:29.937Z,4
2017-06-28T03:25:55.481Z,4
2017-06-28T03:26:21.037Z,4
2017-06-28T03:26:46.684Z,0
2017-06-28T03:27:12.251Z,0
2017-06-28T03:27:37.799Z,0
2017-06-28T03:28:03.348Z,0
2017-06-28T03:28:28.952Z,0
2017-06-28T03:28:54.472Z,0
2017-06-28T03:29:20.108Z,0
2017-06-28T03:29:45.672Z,0
2017-06-28T03:30:11.238Z,0
2017-06-28T03:30:36.882Z,4
2017-06-28T03:31:02.448Z,4
2017-06-28T03:31:28.023Z,4
2017-06-28T03:31:53.575Z,4
2017-06-28T03:32:19.149Z,4
2017-06-28T03:32:44.704Z,4
2017-06-28T03:33:10.351Z,4
2017-06-28T03:33:36.001Z,4
2017-06-28T03:34:01.547Z,4
2017-06-28T03:34:27.194Z,4
2017-06-28T03:34:52.753Z,4
2017-06-28T03:35:18.314Z,4
2017-06-28T03:35:43.911Z,4
2017-06-28T03:36:09.450Z,4
2017-06-28T03:36:35.007Z,4
2017-06-28T03:37:00.577Z,4
2017-06-28T03:37:26.152Z,4
2017-06-28T03:37:51.706Z,4
2017-06-28T03:38:17.270Z,4
2017-06-28T03:38:42.839Z,4
2017-06-28T03:39:08.404Z,4
2017-06-28T03:39:33.983Z,4
2017-06-28T03:39:59.618Z,4
2017-06-28T03:40:25.202Z,4
2017-06-28T03:40:50.757Z,4
2017-06-28T03:41:16.307Z,4
2017-06-28T03:41:41.925Z,4
2017-06-28T03:42:07.497Z,4
2017-06-28T03:42:33.056Z,4
2017-06-28T03:42:58.609Z,4
2017-06-28T03:43:24.179Z,4
2017-06-28T03:43:49.749Z,4
2017-06-28T03:44:15.336Z,4
2017-06-28T03:44:40.906Z,4
2017-06-28T03:45:06.450Z,4
2017-06-28T03:45:32.042Z,4
2017-06-28T03:45:57.611Z,4
2017-06-28T03:46:23.195Z,4
2017-06-28T03:46:48.834Z,4
2017-06-28T03:47:14.419Z,4
2017-06-28T03:47:39.997Z,4
2017-06-28T03:48:05.561Z,4
2017-06-28T03:48:31.119Z,4
2017-06-28T03:48:56.676Z,4
2017-06-28T03:49:22.256Z,4
2017-06-28T03:49:47.847Z,4
2017-06-28T03:50:13.395Z,4
2017-06-28T03:50:38.966Z,4
2017-06-28T03:51:04.550Z,4
2017-06-28T03:51:30.103Z,4
2017-06-28T03:51:55.884Z,4
2017-06-28T03:52:21.457Z,4
2017-06-28T03:52:47.012Z,4
2017-06-28T03:53:12.587Z,4
2017-06-28T03:53:38.157Z,4
2017-06-28T03:54:03.721Z,4
2017-06-28T03:54:29.274Z,4
2017-06-28T03:54:54.827Z,4
2017-06-28T03:55:20.383Z,4
2017-06-28T03:55:45.973Z,4
2017-06-28T03:56:11.530Z,4
2017-06-28T03:56:37.121Z,4
2017-06-28T03:57:02.734Z,4
2017-06-28T03:57:28.290Z,4
2017-06-28T03:57:53.870Z,4
2017-06-28T03:58:19.496Z,4
2017-06-28T03:58:45.096Z,4
2017-06-28T03:59:10.660Z,4
2017-06-28T03:59:36.229Z,4
2017-06-28T04:00:01.812Z,4
2017-06-28T04:00:27.372Z,4
2017-06-28T04:00:52.931Z,4
2017-06-28T04:01:18.591Z,4
2017-06-28T04:01:44.138Z,4
2017-06-28T04:02:09.680Z,4
2017-06-28T04:02:35.227Z,4
2017-06-28T04:03:00.790Z,4
2017-06-28T04:03:26.384Z,4
2017-06-28T04:03:51.954Z,4
2017-06-28T04:04:17.512Z,4
2017-06-28T04:04:43.088Z,4
2017-06-28T04:05:08.677Z,4
2017-06-28T04:05:34.230Z,4
2017-06-28T04:05:59.845Z,4
2017-06-28T04:06:25.407Z,4
2017-06-28T04:06:50.983Z,4
2017-06-28T04:07:16.609Z,4
2017-06-28T04:07:42.194Z,4
2017-06-28T04:08:07.822Z,4
2017-06-28T04:08:33.401Z,4
2017-06-28T04:08:58.951Z,4
2017-06-28T04:09:24.541Z,4
2017-06-28T04:09:50.118Z,4
2017-06-28T04:10:15.727Z,4
2017-06-28T04:10:41.284Z,4
2017-06-28T04:11:06.831Z,4
2017-06-28T04:11:32.404Z,4
2017-06-28T04:11:58.040Z,4
2017-06-28T04:12:23.600Z,4
2017-06-28T04:12:49.151Z,4
2017-06-28T04:13:14.709Z,4
2017-06-28T04:13:40.266Z,4
2017-06-28T04:14:05.848Z,4
2017-06-28T04:14:31.400Z,4
2017-06-28T04:14:56.943Z,4
2017-06-28T04:15:22.568Z,4
2017-06-28T04:15:48.169Z,4
2017-06-28T04:16:13.730Z,4
2017-06-28T04:16:39.341Z,4
2017-06-28T04:17:04.890Z,4
2017-06-28T04:17:30.448Z,4
2017-06-28T04:17:56.009Z,4
2017-06-28T04:18:21.619Z,4
2017-06-28T04:18:47.200Z,4
2017-06-28T04:19:12.750Z,4
2017-06-28T04:19:38.397Z,4
2017-06-28T04:20:03.953Z,4
2017-06-28T04:20:29.531Z,4
2017-06-28T04:20:55.146Z,4
2017-06-28T04:21:20.718Z,4
2017-06-28T04:21:46.277Z,4
2017-06-28T04:22:11.830Z,0
2017-06-28T04:22:37.422Z,0
2017-06-28T04:23:02.963Z,4
2017-06-28T04:23:28.560Z,4
2017-06-28T04:23:54.110Z,4
2017-06-28T04:24:19.674Z,4
2017-06-28T04:24:45.286Z,4
2017-06-28T04:25:10.853Z,4
2017-06-28T04:25:36.412Z,4
2017-06-28T04:26:01.965Z,4
2017-06-28T04:26:27.538Z,4
2017-06-28T04:26:53.105Z,4
2017-06-28T04:27:18.733Z,4
2017-06-28T04:27:44.290Z,4
2017-06-28T04:28:09.837Z,4
2017-06-28T04:28:35.438Z,0
2017-06-28T04:29:01.011Z,0
2017-06-28T04:29:26.561Z,4
2017-06-28T04:29:52.129Z,4
2017-06-28T04:30:17.692Z,4
2017-06-28T04:30:43.261Z,4
2017-06-28T04:31:08.829Z,4
2017-06-28T04:31:34.407Z,4
2017-06-28T04:31:59.997Z,4
2017-06-28T04:32:25.551Z,4
2017-06-28T04:32:51.104Z,4
2017-06-28T04:33:16.674Z,4
2017-06-28T04:33:42.227Z,4
2017-06-28T04:34:07.789Z,4
2017-06-28T04:34:33.341Z,4
2017-06-28T04:34:58.894Z,4
2017-06-28T04:35:24.455Z,4
2017-06-28T04:35:50.039Z,8
2017-06-28T04:36:15.616Z,4
2017-06-28T04:36:41.198Z,4
2017-06-28T04:37:06.753Z,4
2017-06-28T04:37:32.322Z,4
2017-06-28T04:37:57.895Z,4
2017-06-28T04:38:23.504Z,4
2017-06-28T04:38:49.064Z,4
2017-06-28T04:39:14.606Z,4
2017-06-28T04:39:40.183Z,4
2017-06-28T04:40:05.751Z,4
2017-06-28T04:40:31.333Z,4
2017-06-28T04:40:56.896Z,8
2017-06-28T04:41:22.487Z,8
2017-06-28T04:41:48.058Z,12
2017-06-28T04:42:13.637Z,16
2017-06-28T04:42:39.257Z,16
2017-06-28T04:43:04.835Z,16
2017-06-28T04:43:30.395Z,16
2017-06-28T04:43:56.049Z,16
2017-06-28T04:44:21.642Z,16
2017-06-28T04:44:47.218Z,16
2017-06-28T04:45:12.788Z,20
2017-06-28T04:45:38.359Z,16
2017-06-28T04:46:03.926Z,20
2017-06-28T04:46:29.659Z,20
2017-06-28T04:46:55.228Z,20
2017-06-28T04:47:20.812Z,20
2017-06-28T04:47:46.395Z,20
2017-06-28T04:48:11.959Z,20
2017-06-28T04:48:37.559Z,24
2017-06-28T04:49:03.190Z,20
2017-06-28T04:49:28.751Z,20
2017-06-28T04:49:54.309Z,24
2017-06-28T04:50:19.903Z,24
2017-06-28T04:50:45.461Z,24
2017-06-28T04:51:11.010Z,28
2017-06-28T04:51:36.592Z,24
2017-06-28T04:52:02.280Z,24
2017-06-28T04:52:27.928Z,24
2017-06-28T04:52:53.510Z,24
2017-06-28T04:53:19.057Z,24
2017-06-28T04:53:44.614Z,24
2017-06-28T04:54:10.186Z,24
2017-06-28T04:54:35.746Z,24
2017-06-28T04:55:01.501Z,24
2017-06-28T04:55:27.069Z,24
2017-06-28T04:55:52.626Z,28
2017-06-28T04:56:18.175Z,28
2017-06-28T04:56:43.948Z,24
2017-06-28T04:57:09.588Z,24
2017-06-28T04:57:35.148Z,24
2017-06-28T04:58:00.720Z,24
2017-06-28T04:58:26.307Z,24
2017-06-28T04:58:51.861Z,24
2017-06-28T04:59:17.463Z,20
2017-06-28T04:59:43.032Z,20
2017-06-28T05:00:08.569Z,24
2017-06-28T05:00:34.143Z,24
2017-06-28T05:00:59.749Z,24
2017-06-28T05:01:25.318Z,24
2017-06-28T05:01:50.901Z,24
2017-06-28T05:02:16.560Z,20
2017-06-28T05:02:42.120Z,20
2017-06-28T05:03:07.678Z,20
2017-06-28T05:03:33.251Z,20
2017-06-28T05:03:58.832Z,20
2017-06-28T05:04:24.416Z,20
2017-06-28T05:04:49.968Z,24
2017-06-28T05:05:15.520Z,24
2017-06-28T05:05:41.108Z,24
2017-06-28T05:06:06.769Z,20
2017-06-28T05:06:32.331Z,24
2017-06-28T05:06:57.908Z,24
2017-06-28T05:07:23.485Z,24
2017-06-28T05:07:49.035Z,24
2017-06-28T05:08:14.606Z,24
2017-06-28T05:08:40.178Z,28
2017-06-28T05:09:05.748Z,28
2017-06-28T05:09:31.307Z,24
2017-06-28T05:09:56.910Z,24
2017-06-28T05:10:22.465Z,24
2017-06-28T05:10:48.030Z,24
2017-06-28T05:11:13.607Z,24
2017-06-28T05:11:39.168Z,24
2017-06-28T05:12:04.704Z,24
2017-06-28T05:12:30.329Z,24
2017-06-28T05:12:55.921Z,24
2017-06-28T05:13:21.493Z,24
2017-06-28T05:13:47.074Z,24
2017-06-28T05:14:12.700Z,24
2017-06-28T05:14:38.254Z,24
2017-06-28T05:16:35.762Z,28
2017-06-28T05:17:01.315Z,24
2017-06-28T05:17:26.929Z,28
2017-06-28T05:17:52.660Z,28
2017-06-28T05:18:18.204Z,28
2017-06-28T05:18:43.765Z,28
2017-06-28T05:19:09.393Z,28
2017-06-28T05:19:34.997Z,28
2017-06-28T05:20:00.562Z,28
2017-06-28T05:20:26.141Z,28
2017-06-28T05:20:51.699Z,28
2017-06-28T05:21:17.309Z,32
2017-06-28T05:21:42.875Z,32
2017-06-28T05:22:08.491Z,32
2017-06-28T05:22:34.051Z,32
2017-06-28T05:22:59.626Z,32
2017-06-28T05:23:25.232Z,32
2017-06-28T05:23:50.785Z,32
2017-06-28T05:24:16.349Z,32
2017-06-28T05:24:41.933Z,32
2017-06-28T05:25:07.489Z,32
2017-06-28T05:25:33.038Z,32
2017-06-28T05:25:58.653Z,32
2017-06-28T05:26:24.209Z,32
2017-06-28T05:26:49.771Z,28
2017-06-28T05:27:15.332Z,28
2017-06-28T05:27:40.900Z,28
2017-06-28T05:28:06.484Z,28
2017-06-28T05:28:32.137Z,28
2017-06-28T05:28:57.713Z,28
2017-06-28T05:29:23.278Z,28
2017-06-28T05:29:48.830Z,28
2017-06-28T05:30:14.466Z,28
2017-06-28T05:30:40.029Z,28
2017-06-28T05:31:05.594Z,32
2017-06-28T05:31:31.153Z,28
2017-06-28T05:31:56.714Z,28
2017-06-28T05:32:22.315Z,28
2017-06-28T05:32:47.876Z,24
2017-06-28T05:33:13.437Z,28
2017-06-28T05:33:39.080Z,28
2017-06-28T05:34:04.646Z,28
2017-06-28T05:34:30.187Z,28
2017-06-28T05:34:55.757Z,32
2017-06-28T05:35:21.379Z,28
2017-06-28T05:35:46.931Z,28
2017-06-28T05:36:12.483Z,28
2017-06-28T05:36:38.163Z,32
2017-06-28T05:37:03.741Z,28
2017-06-28T05:37:29.305Z,28
2017-06-28T05:37:54.860Z,32
2017-06-28T05:38:20.425Z,32
2017-06-28T05:38:45.972Z,32
2017-06-28T05:39:11.631Z,32
2017-06-28T05:39:37.194Z,32
2017-06-28T05:40:02.759Z,32
2017-06-28T05:40:28.308Z,32
2017-06-28T05:40:53.874Z,36
2017-06-28T05:41:19.422Z,36
2017-06-28T05:41:44.987Z,36
2017-06-28T05:42:10.556Z,36
2017-06-28T05:42:36.121Z,36
2017-06-28T05:43:01.765Z,36
2017-06-28T05:43:27.329Z,40
2017-06-28T05:43:52.891Z,40
2017-06-28T05:44:18.449Z,36
2017-06-28T05:44:44.023Z,40
2017-06-28T05:45:09.571Z,48
2017-06-28T05:45:35.295Z,40
2017-06-28T05:46:00.881Z,44
2017-06-28T05:46:26.462Z,44
2017-06-28T05:46:52.026Z,48
2017-06-28T05:47:17.630Z,56
2017-06-28T05:47:43.224Z,68
2017-06-28T05:48:08.762Z,56
2017-06-28T05:48:34.315Z,76
2017-06-28T05:48:59.868Z,84
2017-06-28T05:49:25.450Z,56
2017-06-28T05:49:51.088Z,56
2017-06-28T05:50:16.661Z,60
2017-06-28T05:50:42.256Z,56
2017-06-28T05:51:07.831Z,52
2017-06-28T05:51:33.399Z,48
2017-06-28T05:51:58.982Z,48
2017-06-28T05:52:24.550Z,52
2017-06-28T05:52:50.110Z,56
2017-06-28T05:53:15.689Z,60
2017-06-28T05:53:41.261Z,60
2017-06-28T05:54:06.839Z,60
2017-06-28T05:54:32.425Z,56
2017-06-28T05:54:57.979Z,60
2017-06-28T05:55:23.556Z,56
2017-06-28T05:55:49.104Z,60
2017-06-28T05:56:14.688Z,56
2017-06-28T05:56:40.257Z,56
2017-06-28T05:57:05.803Z,56
2017-06-28T05:57:31.480Z,56
2017-06-28T05:57:57.047Z,56
2017-06-28T05:58:22.605Z,56
2017-06-28T05:58:48.209Z,56
2017-06-28T05:59:13.785Z,52
2017-06-28T05:59:39.349Z,56
2017-06-28T06:00:04.926Z,56
2017-06-28T06:00:30.560Z,56
2017-06-28T06:00:56.106Z,56
2017-06-28T06:01:21.689Z,56
2017-06-28T06:01:47.262Z,56
2017-06-28T06:02:12.842Z,56
2017-06-28T06:02:38.440Z,56
2017-06-28T06:03:04.202Z,56
2017-06-28T06:03:29.779Z,56
2017-06-28T06:03:55.373Z,56
2017-06-28T06:04:20.902Z,56
2017-06-28T06:04:46.671Z,56
2017-06-28T06:05:12.230Z,60
2017-06-28T06:05:37.811Z,56
2017-06-28T06:06:03.375Z,56
2017-06-28T06:06:28.943Z,60
2017-06-28T06:06:54.495Z,60
2017-06-28T06:07:20.068Z,60
2017-06-28T06:07:45.632Z,60
2017-06-28T06:08:11.195Z,60
2017-06-28T06:08:36.820Z,60
2017-06-28T06:09:02.451Z,60
2017-06-28T06:09:28.028Z,60
2017-06-28T06:09:53.605Z,56
2017-06-28T06:10:19.163Z,60
2017-06-28T06:10:44.727Z,56
2017-06-28T06:11:10.293Z,60
2017-06-28T06:11:35.867Z,56
2017-06-28T06:12:01.412Z,56
2017-06-28T06:12:27.008Z,56
2017-06-28T06:12:52.587Z,52
2017-06-28T06:13:18.166Z,56
2017-06-28T06:13:43.744Z,52
2017-06-28T06:14:09.397Z,52
2017-06-28T06:14:34.973Z,52
2017-06-28T06:15:00.568Z,52
2017-06-28T06:15:26.136Z,56
2017-06-28T06:15:51.674Z,52
2017-06-28T06:16:17.250Z,56
2017-06-28T06:16:42.810Z,52
2017-06-28T06:17:08.349Z,52
2017-06-28T06:17:34.032Z,56
2017-06-28T06:17:59.559Z,56